Apalachicola, Florida
Current Conditions -  °F | °C
As of 12:53 AM on Monday 26 Jan 2015 (Local Time) from KAAF Reporting Station
Overcast Overcast  
Wind Chill: 61°   Ceiling: 8500
Heat Index: 61°   Visibility: 10mi
Dew Point: 53°   Wind: 12mph
Humidity: 75%   Direction: 280°W
Pressure: 29.86"   Gusts: NA
Location:  29.73°N, 84.99°W
Report Text: KAAF 260553Z AUTO 28010KT 10SM BKN085 OVC110 16/12 A2986 RMK AO2 RAE26 SLP110 P0003 60003 T01610117 10189 20156 58006 TSNO $
Loading
Personal Weather Stations






























Interactive Weather Map New forecast layout! Learn more

10-Day Weather Forecast

Advertisements
Track Severe Weather on mobile